sensor_id;sensor_type;location;lat;lon;timestamp;pressure;altitude;pressure_sealevel;temperature;humidity
19795;BME280;10057;59.402;17.866;2024-02-15T00:00:54;101743.88;;;1.95;84.54
19795;BME280;10057;59.402;17.866;2024-02-15T00:03:20;101742.16;;;1.96;84.47
19795;BME280;10057;59.402;17.866;2024-02-15T00:05:48;101734.28;;;1.96;84.87
19795;BME280;10057;59.402;17.866;2024-02-15T00:08:15;101733.44;;;1.97;84.78
19795;BME280;10057;59.402;17.866;2024-02-15T00:10:42;101736.91;;;1.97;84.97
19795;BME280;10057;59.402;17.866;2024-02-15T00:13:10;101732.56;;;1.96;84.67
19795;BME280;10057;59.402;17.866;2024-02-15T00:15:36;101736.03;;;1.95;84.45
19795;BME280;10057;59.402;17.866;2024-02-15T00:18:03;101724.66;;;1.95;84.66
19795;BME280;10057;59.402;17.866;2024-02-15T00:20:31;101737.75;;;1.93;84.60
19795;BME280;10057;59.402;17.866;2024-02-15T00:23:00;101730.75;;;1.94;84.64
19795;BME280;10057;59.402;17.866;2024-02-15T00:25:27;101743.84;;;1.94;84.61
19795;BME280;10057;59.402;17.866;2024-02-15T00:27:54;101742.94;;;1.90;84.98
19795;BME280;10057;59.402;17.866;2024-02-15T00:30:20;101740.31;;;1.88;84.75
19795;BME280;10057;59.402;17.866;2024-02-15T00:32:48;101738.56;;;1.89;84.45
19795;BME280;10057;59.402;17.866;2024-02-15T00:35:15;101738.53;;;1.87;84.67
19795;BME280;10057;59.402;17.866;2024-02-15T00:37:43;101739.38;;;1.86;84.54
19795;BME280;10057;59.402;17.866;2024-02-15T00:40:11;101736.78;;;1.86;84.78
19795;BME280;10057;59.402;17.866;2024-02-15T00:42:38;101737.66;;;1.87;84.58
19795;BME280;10057;59.402;17.866;2024-02-15T00:45:05;101725.38;;;1.84;84.82
19795;BME280;10057;59.402;17.866;2024-02-15T00:47:35;101721.06;;;1.86;84.68
19795;BME280;10057;59.402;17.866;2024-02-15T00:50:02;101724.56;;;1.85;84.68
19795;BME280;10057;59.402;17.866;2024-02-15T00:52:30;101713.19;;;1.83;85.16
19795;BME280;10057;59.402;17.866;2024-02-15T00:54:57;101722.78;;;1.84;84.68
19795;BME280;10057;59.402;17.866;2024-02-15T00:57:23;101723.69;;;1.85;85.04
19795;BME280;10057;59.402;17.866;2024-02-15T00:59:50;101742.84;;;1.84;84.53
19795;BME280;10057;59.402;17.866;2024-02-15T01:02:18;101735.84;;;1.81;84.65
19795;BME280;10057;59.402;17.866;2024-02-15T01:04:45;101731.41;;;1.77;84.87
19795;BME280;10057;59.402;17.866;2024-02-15T01:07:12;101740.13;;;1.76;84.46
19795;BME280;10057;59.402;17.866;2024-02-15T01:09:40;101731.38;;;1.76;85.12
19795;BME280;10057;59.402;17.866;2024-02-15T01:12:06;101728.72;;;1.74;84.90
19795;BME280;10057;59.402;17.866;2024-02-15T01:14:33;101734.88;;;1.76;84.96
19795;BME280;10057;59.402;17.866;2024-02-15T01:17:01;101730.53;;;1.77;85.23
19795;BME280;10057;59.402;17.866;2024-02-15T01:19:27;101738.38;;;1.75;84.83
19795;BME280;10057;59.402;17.866;2024-02-15T01:21:54;101734.84;;;1.73;85.01
19795;BME280;10057;59.402;17.866;2024-02-15T01:24:21;101737.50;;;1.76;85.31
19795;BME280;10057;59.402;17.866;2024-02-15T01:26:48;101735.75;;;1.77;84.93
19795;BME280;10057;59.402;17.866;2024-02-15T01:29:16;101742.72;;;1.78;84.62
19795;BME280;10057;59.402;17.866;2024-02-15T01:31:42;101741.88;;;1.77;84.89
19795;BME280;10057;59.402;17.866;2024-02-15T01:34:09;101740.16;;;1.79;85.01
19795;BME280;10057;59.402;17.866;2024-02-15T01:36:36;101733.19;;;1.78;85.10
19795;BME280;10057;59.402;17.866;2024-02-15T01:39:02;101735.84;;;1.81;85.09
19795;BME280;10057;59.402;17.866;2024-02-15T01:41:29;101740.22;;;1.84;85.27
19795;BME280;10057;59.402;17.866;2024-02-15T01:43:56;101734.97;;;1.82;85.22
19795;BME280;10057;59.402;17.866;2024-02-15T01:46:22;101736.72;;;1.83;85.11
19795;BME280;10057;59.402;17.866;2024-02-15T01:48:49;101735.84;;;1.83;84.81
19795;BME280;10057;59.402;17.866;2024-02-15T01:51:16;101729.75;;;1.82;84.81
19795;BME280;10057;59.402;17.866;2024-02-15T01:53:44;101734.09;;;1.83;85.23
19795;BME280;10057;59.402;17.866;2024-02-15T01:56:13;101732.38;;;1.84;85.18
19795;BME280;10057;59.402;17.866;2024-02-15T01:58:42;101728.00;;;1.84;85.42
19795;BME280;10057;59.402;17.866;2024-02-15T02:01:09;101727.13;;;1.82;85.26
19795;BME280;10057;59.402;17.866;2024-02-15T02:03:38;101731.44;;;1.80;85.15
19795;BME280;10057;59.402;17.866;2024-02-15T02:06:05;101728.81;;;1.80;85.24
19795;BME280;10057;59.402;17.866;2024-02-15T02:08:33;101725.38;;;1.83;85.47
19795;BME280;10057;59.402;17.866;2024-02-15T02:10:59;101718.41;;;1.82;85.26
19795;BME280;10057;59.402;17.866;2024-02-15T02:13:28;101721.03;;;1.83;84.87
19795;BME280;10057;59.402;17.866;2024-02-15T02:15:57;101722.78;;;1.84;84.91
19795;BME280;10057;59.402;17.866;2024-02-15T02:18:23;101712.31;;;1.84;84.83
19795;BME280;10057;59.402;17.866;2024-02-15T02:20:51;101721.94;;;1.85;85.14
19795;BME280;10057;59.402;17.866;2024-02-15T02:23:21;101717.53;;;1.84;85.35
19795;BME280;10057;59.402;17.866;2024-02-15T02:25:52;101712.31;;;1.84;85.44
19795;BME280;10057;59.402;17.866;2024-02-15T02:28:21;101712.34;;;1.87;85.00
19795;BME280;10057;59.402;17.866;2024-02-15T02:30:48;101714.13;;;1.88;85.51
19795;BME280;10057;59.402;17.866;2024-02-15T02:33:14;101710.66;;;1.89;85.42
19795;BME280;10057;59.402;17.866;2024-02-15T02:35:47;101713.28;;;1.91;85.09
19795;BME280;10057;59.402;17.866;2024-02-15T02:38:14;101719.41;;;1.92;85.24
19795;BME280;10057;59.402;17.866;2024-02-15T02:40:41;101716.78;;;1.92;85.11
19795;BME280;10057;59.402;17.866;2024-02-15T02:43:08;101717.69;;;1.94;85.11
19795;BME280;10057;59.402;17.866;2024-02-15T02:45:36;101712.44;;;1.94;84.97
19795;BME280;10057;59.402;17.866;2024-02-15T02:48:03;101722.94;;;1.95;85.10
19795;BME280;10057;59.402;17.866;2024-02-15T02:50:31;101722.09;;;1.96;85.47
19795;BME280;10057;59.402;17.866;2024-02-15T02:52:58;101719.50;;;1.99;85.26
19795;BME280;10057;59.402;17.866;2024-02-15T02:55:25;101724.75;;;2.01;85.63
19795;BME280;10057;59.402;17.866;2024-02-15T02:57:54;101715.16;;;2.01;85.22
19795;BME280;10057;59.402;17.866;2024-02-15T03:00:22;101719.50;;;2.01;85.18
19795;BME280;10057;59.402;17.866;2024-02-15T03:02:49;101724.75;;;2.01;85.45
19795;BME280;10057;59.402;17.866;2024-02-15T03:05:16;101728.22;;;2.00;84.89
19795;BME280;10057;59.402;17.866;2024-02-15T03:07:43;101713.34;;;1.97;84.74
19795;BME280;10057;59.402;17.866;2024-02-15T03:10:11;101719.44;;;1.95;85.24
19795;BME280;10057;59.402;17.866;2024-02-15T03:12:41;101716.81;;;1.95;85.56
19795;BME280;10057;59.402;17.866;2024-02-15T03:15:14;101720.34;;;1.95;85.72
19795;BME280;10057;59.402;17.866;2024-02-15T03:17:42;101711.56;;;1.95;85.23
19795;BME280;10057;59.402;17.866;2024-02-15T03:20:10;101715.97;;;1.96;85.47
19795;BME280;10057;59.402;17.866;2024-02-15T03:22:57;101719.47;;;1.98;85.22
19795;BME280;10057;59.402;17.866;2024-02-15T03:25:24;101713.34;;;1.97;85.43
19795;BME280;10057;59.402;17.866;2024-02-15T03:27:52;101711.63;;;1.96;85.47
19795;BME280;10057;59.402;17.866;2024-02-15T03:30:20;101718.59;;;1.97;85.55
19795;BME280;10057;59.402;17.866;2024-02-15T03:32:47;101721.22;;;1.96;85.20
19795;BME280;10057;59.402;17.866;2024-02-15T03:35:18;101715.97;;;1.97;85.35
19795;BME280;10057;59.402;17.866;2024-02-15T03:37:45;101728.19;;;1.98;85.22
19795;BME280;10057;59.402;17.866;2024-02-15T03:40:12;101715.09;;;1.98;85.35
19795;BME280;10057;59.402;17.866;2024-02-15T03:42:39;101725.63;;;2.00;85.41
19795;BME280;10057;59.402;17.866;2024-02-15T03:45:06;101724.75;;;2.01;85.63
19795;BME280;10057;59.402;17.866;2024-02-15T03:47:33;101721.25;;;2.00;85.21
19795;BME280;10057;59.402;17.866;2024-02-15T03:50:00;101723.88;;;2.00;85.24
19795;BME280;10057;59.402;17.866;2024-02-15T03:52:26;101722.16;;;2.02;85.40
19795;BME280;10057;59.402;17.866;2024-02-15T03:54:53;101723.91;;;2.02;85.46
19795;BME280;10057;59.402;17.866;2024-02-15T03:57:20;101723.91;;;2.02;85.57
19795;BME280;10057;59.402;17.866;2024-02-15T03:59:47;101723.88;;;2.00;85.42
19795;BME280;10057;59.402;17.866;2024-02-15T04:02:19;101723.00;;;2.00;85.27
19795;BME280;10057;59.402;17.866;2024-02-15T04:04:46;101723.00;;;2.00;85.73
19795;BME280;10057;59.402;17.866;2024-02-15T04:07:16;101723.88;;;2.00;85.30
19795;BME280;10057;59.402;17.866;2024-02-15T04:09:43;101729.97;;;2.01;85.63
19795;BME280;10057;59.402;17.866;2024-02-15T04:12:10;101726.53;;;2.02;85.61
19795;BME280;10057;59.402;17.866;2024-02-15T04:14:38;101722.16;;;2.02;85.43
19795;BME280;10057;59.402;17.866;2024-02-15T04:17:05;101730.91;;;2.03;85.39
19795;BME280;10057;59.402;17.866;2024-02-15T04:19:32;101730.84;;;2.00;85.31
19795;BME280;10057;59.402;17.866;2024-02-15T04:21:59;101731.72;;;1.99;85.25
19795;BME280;10057;59.402;17.866;2024-02-15T04:24:26;101729.94;;;1.98;85.19
19795;BME280;10057;59.402;17.866;2024-02-15T04:26:53;101734.28;;;1.96;85.60
19795;BME280;10057;59.402;17.866;2024-02-15T04:29:20;101738.63;;;1.94;85.39
19795;BME280;10057;59.402;17.866;2024-02-15T04:31:47;101736.03;;;1.97;85.34
19795;BME280;10057;59.402;17.866;2024-02-15T04:34:17;101727.44;;;2.05;84.89
19795;BME280;10057;59.402;17.866;2024-02-15T04:36:47;101733.59;;;2.09;85.47
19795;BME280;10057;59.402;17.866;2024-02-15T04:39:20;101735.31;;;2.07;84.96
19795;BME280;10057;59.402;17.866;2024-02-15T04:41:56;101739.63;;;2.05;85.26
19795;BME280;10057;59.402;17.866;2024-02-15T04:44:22;101730.91;;;2.03;85.21
19795;BME280;10057;59.402;17.866;2024-02-15T04:46:56;101737.00;;;2.02;85.09
19795;BME280;10057;59.402;17.866;2024-02-15T04:49:24;101725.56;;;1.98;85.49
19795;BME280;10057;59.402;17.866;2024-02-15T04:51:50;101723.78;;;1.93;85.06
19795;BME280;10057;59.402;17.866;2024-02-15T04:54:18;101725.44;;;1.86;85.04
19795;BME280;10057;59.402;17.866;2024-02-15T04:56:44;101721.03;;;1.83;85.35
19795;BME280;10057;59.402;17.866;2024-02-15T04:59:12;101732.34;;;1.82;85.35
19795;BME280;10057;59.402;17.866;2024-02-15T05:01:42;101727.13;;;1.82;85.42
19795;BME280;10057;59.402;17.866;2024-02-15T05:04:12;101734.97;;;1.84;85.42
19795;BME280;10057;59.402;17.866;2024-02-15T05:06:40;101729.75;;;1.82;85.58
19795;BME280;10057;59.402;17.866;2024-02-15T05:09:07;101729.75;;;1.84;85.50
19795;BME280;10057;59.402;17.866;2024-02-15T05:11:37;101730.66;;;1.87;85.34
19795;BME280;10057;59.402;17.866;2024-02-15T05:14:07;101729.78;;;1.85;85.64
19795;BME280;10057;59.402;17.866;2024-02-15T05:16:34;101726.25;;;1.83;85.61
19795;BME280;10057;59.402;17.866;2024-02-15T05:19:01;101731.50;;;1.83;85.35
19795;BME280;10057;59.402;17.866;2024-02-15T05:21:29;101728.88;;;1.82;85.57
19795;BME280;10057;59.402;17.866;2024-02-15T05:23:56;101731.50;;;1.83;85.49
19795;BME280;10057;59.402;17.866;2024-02-15T05:26:24;101728.88;;;1.83;85.80
19795;BME280;10057;59.402;17.866;2024-02-15T05:28:51;101734.16;;;1.86;85.56
19795;BME280;10057;59.402;17.866;2024-02-15T05:31:20;101723.69;;;1.86;85.57
19795;BME280;10057;59.402;17.866;2024-02-15T05:33:47;101717.59;;;1.87;85.75
19795;BME280;10057;59.402;17.866;2024-02-15T05:36:16;101719.38;;;1.88;85.43
19795;BME280;10057;59.402;17.866;2024-02-15T05:38:55;101730.66;;;1.86;85.40
19795;BME280;10057;59.402;17.866;2024-02-15T05:41:23;101727.19;;;1.87;85.88
19795;BME280;10057;59.402;17.866;2024-02-15T05:43:51;101730.66;;;1.87;85.75
19795;BME280;10057;59.402;17.866;2024-02-15T05:46:20;101737.69;;;1.88;85.54
19795;BME280;10057;59.402;17.866;2024-02-15T05:48:50;101732.44;;;1.88;85.40
19795;BME280;10057;59.402;17.866;2024-02-15T05:51:18;101730.72;;;1.89;85.79
19795;BME280;10057;59.402;17.866;2024-02-15T05:53:45;101735.06;;;1.88;85.57
19795;BME280;10057;59.402;17.866;2024-02-15T05:56:12;101733.31;;;1.89;85.57
19795;BME280;10057;59.402;17.866;2024-02-15T05:58:40;101734.19;;;1.89;85.75
19795;BME280;10057;59.402;17.866;2024-02-15T06:01:06;101723.75;;;1.91;86.10
19795;BME280;10057;59.402;17.866;2024-02-15T06:03:34;101725.47;;;1.90;85.41
19795;BME280;10057;59.402;17.866;2024-02-15T06:06:04;101723.75;;;1.91;85.88
19795;BME280;10057;59.402;17.866;2024-02-15T06:08:35;101737.72;;;1.92;85.61
19795;BME280;10057;59.402;17.866;2024-02-15T06:11:03;101735.13;;;1.92;86.05
19795;BME280;10057;59.402;17.866;2024-02-15T06:13:31;101743.84;;;1.92;85.40
19795;BME280;10057;59.402;17.866;2024-02-15T06:15:58;101742.09;;;1.93;86.09
19795;BME280;10057;59.402;17.866;2024-02-15T06:18:28;101747.34;;;1.93;85.68
19795;BME280;10057;59.402;17.866;2024-02-15T06:20:56;101748.16;;;1.90;86.01
19795;BME280;10057;59.402;17.866;2024-02-15T06:23:28;101749.91;;;1.89;85.67
19795;BME280;10057;59.402;17.866;2024-02-15T06:25:56;101742.94;;;1.90;85.56
19795;BME280;10057;59.402;17.866;2024-02-15T06:28:24;101745.53;;;1.90;85.78
19795;BME280;10057;59.402;17.866;2024-02-15T06:31:11;101745.59;;;1.92;86.00
19795;BME280;10057;59.402;17.866;2024-02-15T06:33:56;101750.78;;;1.88;86.12
19795;BME280;10057;59.402;17.866;2024-02-15T06:36:55;101749.00;;;1.87;86.14
19795;BME280;10057;59.402;17.866;2024-02-15T06:39:40;101755.09;;;1.85;85.99
19795;BME280;10057;59.402;17.866;2024-02-15T06:42:09;101751.56;;;1.83;85.79
19795;BME280;10057;59.402;17.866;2024-02-15T06:44:39;101746.31;;;1.83;85.79
19795;BME280;10057;59.402;17.866;2024-02-15T06:47:07;101751.56;;;1.84;85.98
19795;BME280;10057;59.402;17.866;2024-02-15T06:49:37;101756.84;;;1.87;85.73
19795;BME280;10057;59.402;17.866;2024-02-15T06:52:07;101752.47;;;1.86;86.13
19795;BME280;10057;59.402;17.866;2024-02-15T06:54:34;101756.00;;;1.88;85.99
19795;BME280;10057;59.402;17.866;2024-02-15T06:57:05;101759.50;;;1.90;85.78
19795;BME280;10057;59.402;17.866;2024-02-15T06:59:32;101754.28;;;1.90;86.20
19795;BME280;10057;59.402;17.866;2024-02-15T07:02:00;101746.47;;;1.92;85.92
19795;BME280;10057;59.402;17.866;2024-02-15T07:04:27;101757.81;;;1.93;85.94
19795;BME280;10057;59.402;17.866;2024-02-15T07:06:54;101766.53;;;1.92;85.65
19795;BME280;10057;59.402;17.866;2024-02-15T07:09:22;101768.28;;;1.93;85.71
19795;BME280;10057;59.402;17.866;2024-02-15T07:11:51;101781.34;;;1.93;85.84
19795;BME280;10057;59.402;17.866;2024-02-15T07:14:18;101784.84;;;1.93;85.89
19795;BME280;10057;59.402;17.866;2024-02-15T07:16:47;101776.13;;;1.94;86.17
19795;BME280;10057;59.402;17.866;2024-02-15T07:19:14;101769.16;;;1.95;85.86
19795;BME280;10057;59.402;17.866;2024-02-15T07:21:42;101777.06;;;1.98;86.08
19795;BME280;10057;59.402;17.866;2024-02-15T07:24:09;101771.00;;;2.00;86.33
19795;BME280;10057;59.402;17.866;2024-02-15T07:26:36;101769.25;;;2.01;85.65
19795;BME280;10057;59.402;17.866;2024-02-15T07:29:03;101769.28;;;2.02;86.07
19795;BME280;10057;59.402;17.866;2024-02-15T07:31:34;101777.19;;;2.07;86.04
19795;BME280;10057;59.402;17.866;2024-02-15T07:34:02;101768.47;;;2.08;85.99
19795;BME280;10057;59.402;17.866;2024-02-15T07:36:30;101771.13;;;2.11;86.33
19795;BME280;10057;59.402;17.866;2024-02-15T07:38:57;101771.19;;;2.12;86.30
19795;BME280;10057;59.402;17.866;2024-02-15T07:41:33;101772.94;;;2.13;86.02
19795;BME280;10057;59.402;17.866;2024-02-15T07:44:00;101778.16;;;2.13;85.82
19795;BME280;10057;59.402;17.866;2024-02-15T07:46:27;101780.78;;;2.15;86.09
19795;BME280;10057;59.402;17.866;2024-02-15T07:48:55;101781.69;;;2.16;86.08
19795;BME280;10057;59.402;17.866;2024-02-15T07:51:23;101782.84;;;2.37;85.75
19795;BME280;10057;59.402;17.866;2024-02-15T07:53:51;101777.91;;;2.60;85.42
19795;BME280;10057;59.402;17.866;2024-02-15T07:56:18;101776.19;;;2.64;84.96
19795;BME280;10057;59.402;17.866;2024-02-15T07:58:47;101777.91;;;2.62;84.67
19795;BME280;10057;59.402;17.866;2024-02-15T08:01:19;101772.59;;;2.56;85.35
19795;BME280;10057;59.402;17.866;2024-02-15T08:03:52;101774.28;;;2.51;85.33
19795;BME280;10057;59.402;17.866;2024-02-15T08:06:21;101780.38;;;2.48;85.42
19795;BME280;10057;59.402;17.866;2024-02-15T08:08:52;101772.47;;;2.44;85.40
19795;BME280;10057;59.402;17.866;2024-02-15T08:11:19;101773.28;;;2.41;85.33
19795;BME280;10057;59.402;17.866;2024-02-15T08:13:47;101777.66;;;2.41;85.41
19795;BME280;10057;59.402;17.866;2024-02-15T08:16:17;101787.25;;;2.40;85.24
19795;BME280;10057;59.402;17.866;2024-02-15T08:18:44;101775.88;;;2.36;85.24
19795;BME280;10057;59.402;17.866;2024-02-15T08:21:13;101777.56;;;2.34;85.16
19795;BME280;10057;59.402;17.866;2024-02-15T08:23:40;101772.31;;;2.33;85.39
19795;BME280;10057;59.402;17.866;2024-02-15T08:26:07;101766.19;;;2.32;85.32
19795;BME280;10057;59.402;17.866;2024-02-15T08:28:34;101773.22;;;2.35;85.63
19795;BME280;10057;59.402;17.866;2024-02-15T08:31:00;101775.81;;;2.35;85.74
19795;BME280;10057;59.402;17.866;2024-02-15T08:33:27;101771.50;;;2.38;85.62
19795;BME280;10057;59.402;17.866;2024-02-15T08:35:55;101760.25;;;2.46;85.81
19795;BME280;10057;59.402;17.866;2024-02-15T08:38:23;101765.56;;;2.52;85.56
19795;BME280;10057;59.402;17.866;2024-02-15T08:40:49;101764.81;;;2.60;85.38
19795;BME280;10057;59.402;17.866;2024-02-15T08:43:16;101770.97;;;2.66;85.62
19795;BME280;10057;59.402;17.866;2024-02-15T08:45:43;101776.25;;;2.67;85.17
19795;BME280;10057;59.402;17.866;2024-02-15T08:48:13;101777.94;;;2.65;85.17
19795;BME280;10057;59.402;17.866;2024-02-15T08:50:53;101775.34;;;2.67;85.31
19795;BME280;10057;59.402;17.866;2024-02-15T08:53:20;101773.59;;;2.66;85.21
19795;BME280;10057;59.402;17.866;2024-02-15T08:55:53;101768.41;;;2.72;85.29
19795;BME280;10057;59.402;17.866;2024-02-15T08:58:24;101768.47;;;2.76;85.72
19795;BME280;10057;59.402;17.866;2024-02-15T09:00:53;101756.22;;;2.77;85.48
19795;BME280;10057;59.402;17.866;2024-02-15T09:03:21;101739.75;;;2.84;85.58
19795;BME280;10057;59.402;17.866;2024-02-15T09:05:48;101774.00;;;3.04;84.91
19795;BME280;10057;59.402;17.866;2024-02-15T09:08:16;101743.34;;;2.97;85.20
19795;BME280;10057;59.402;17.866;2024-02-15T09:10:49;101761.00;;;3.13;85.26
19795;BME280;10057;59.402;17.866;2024-02-15T09:13:16;101768.03;;;3.19;85.14
19795;BME280;10057;59.402;17.866;2024-02-15T09:15:43;101768.94;;;3.22;85.14
19795;BME280;10057;59.402;17.866;2024-02-15T09:18:10;101765.50;;;3.25;85.10
19795;BME280;10057;59.402;17.866;2024-02-15T09:20:37;101765.47;;;3.26;85.06
19795;BME280;10057;59.402;17.866;2024-02-15T09:23:06;101766.34;;;3.25;85.02
19795;BME280;10057;59.402;17.866;2024-02-15T09:25:38;101764.56;;;3.21;85.02
19795;BME280;10057;59.402;17.866;2024-02-15T09:28:05;101768.03;;;3.20;84.84
19795;BME280;10057;59.402;17.866;2024-02-15T09:30:31;101774.13;;;3.16;84.90
19795;BME280;10057;59.402;17.866;2024-02-15T09:32:58;101768.84;;;3.12;85.09
19795;BME280;10057;59.402;17.866;2024-02-15T09:35:25;101770.53;;;3.06;85.24
19795;BME280;10057;59.402;17.866;2024-02-15T09:37:51;101765.25;;;3.03;85.29
19795;BME280;10057;59.402;17.866;2024-02-15T09:40:19;101768.75;;;3.02;85.01
19795;BME280;10057;59.402;17.866;2024-02-15T09:42:47;101766.13;;;3.04;85.18
19795;BME280;10057;59.402;17.866;2024-02-15T09:45:14;101767.91;;;3.06;85.73
19795;BME280;10057;59.402;17.866;2024-02-15T09:47:44;101770.56;;;3.11;85.82
19795;BME280;10057;59.402;17.866;2024-02-15T09:50:13;101766.22;;;3.13;85.53
19795;BME280;10057;59.402;17.866;2024-02-15T09:52:45;101762.72;;;3.13;85.64
19795;BME280;10057;59.402;17.866;2024-02-15T09:55:11;101771.47;;;3.13;85.63
19795;BME280;10057;59.402;17.866;2024-02-15T09:57:44;101767.97;;;3.14;85.69
19795;BME280;10057;59.402;17.866;2024-02-15T10:00:11;101761.84;;;3.12;85.60
19795;BME280;10057;59.402;17.866;2024-02-15T10:02:51;101760.13;;;3.13;85.44
19795;BME280;10057;59.402;17.866;2024-02-15T10:05:19;101757.47;;;3.11;85.65
19795;BME280;10057;59.402;17.866;2024-02-15T10:07:47;101760.94;;;3.10;85.38
19795;BME280;10057;59.402;17.866;2024-02-15T10:10:17;101762.69;;;3.11;85.65
19795;BME280;10057;59.402;17.866;2024-02-15T10:12:52;101768.81;;;3.08;85.32
19795;BME280;10057;59.402;17.866;2024-02-15T10:15:37;101769.63;;;3.03;85.33
19795;BME280;10057;59.402;17.866;2024-02-15T10:18:06;101771.38;;;3.01;85.43
19795;BME280;10057;59.402;17.866;2024-02-15T10:20:39;101767.81;;;2.96;85.60
19795;BME280;10057;59.402;17.866;2024-02-15T10:25:39;101767.75;;;2.90;86.00
19795;BME280;10057;59.402;17.866;2024-02-15T10:28:14;101765.13;;;2.88;85.69
19795;BME280;10057;59.402;17.866;2024-02-15T10:30:46;101767.72;;;2.88;85.99
19795;BME280;10057;59.402;17.866;2024-02-15T10:33:19;101761.63;;;2.88;85.91
19795;BME280;10057;59.402;17.866;2024-02-15T10:35:47;101771.25;;;2.92;86.26
19795;BME280;10057;59.402;17.866;2024-02-15T10:38:14;101766.06;;;2.95;86.18
19795;BME280;10057;59.402;17.866;2024-02-15T10:40:46;101768.72;;;2.98;86.20
19795;BME280;10057;59.402;17.866;2024-02-15T10:43:15;101763.50;;;3.01;86.04
19795;BME280;10057;59.402;17.866;2024-02-15T10:45:43;101764.38;;;3.03;86.17
19795;BME280;10057;59.402;17.866;2024-02-15T10:48:11;101765.28;;;3.06;86.23
19795;BME280;10057;59.402;17.866;2024-02-15T10:50:40;101767.06;;;3.11;86.23
19795;BME280;10057;59.402;17.866;2024-02-15T10:53:21;101771.47;;;3.13;86.43
19795;BME280;10057;59.402;17.866;2024-02-15T10:56:19;101766.22;;;3.13;86.00
19795;BME280;10057;59.402;17.866;2024-02-15T10:58:50;101774.94;;;3.09;85.84
19795;BME280;10057;59.402;17.866;2024-02-15T11:01:21;101774.94;;;3.09;85.96
19795;BME280;10057;59.402;17.866;2024-02-15T11:03:59;101770.53;;;3.05;85.93
19795;BME280;10057;59.402;17.866;2024-02-15T11:06:27;101770.50;;;3.03;86.08
19795;BME280;10057;59.402;17.866;2024-02-15T11:08:56;101773.13;;;3.02;85.90
19795;BME280;10057;59.402;17.866;2024-02-15T11:11:24;101770.47;;;3.00;86.19
19795;BME280;10057;59.402;17.866;2024-02-15T11:16:49;101769.63;;;3.01;86.23
19795;BME280;10057;59.402;17.866;2024-02-15T11:22:09;101767.91;;;3.06;86.39
19795;BME280;10057;59.402;17.866;2024-02-15T11:24:46;101766.22;;;3.13;86.54
19795;BME280;10057;59.402;17.866;2024-02-15T11:27:24;101763.69;;;3.19;86.68
19795;BME280;10057;59.402;17.866;2024-02-15T11:29:56;101769.84;;;3.27;86.77
19795;BME280;10057;59.402;17.866;2024-02-15T11:35:12;101764.78;;;3.46;86.60
19795;BME280;10057;59.402;17.866;2024-02-15T11:42:58;101764.00;;;3.58;86.03
19795;BME280;10057;59.402;17.866;2024-02-15T11:45:29;101769.28;;;3.59;86.09
19795;BME280;10057;59.402;17.866;2024-02-15T11:48:12;101764.91;;;3.60;85.96
19795;BME280;10057;59.402;17.866;2024-02-15T11:50:40;101768.41;;;3.60;85.95
19795;BME280;10057;59.402;17.866;2024-02-15T11:53:08;101766.66;;;3.59;86.04
19795;BME280;10057;59.402;17.866;2024-02-15T11:55:38;101766.63;;;3.56;85.81
19795;BME280;10057;59.402;17.866;2024-02-15T11:58:06;101768.38;;;3.57;86.21
19795;BME280;10057;59.402;17.866;2024-02-15T12:00:38;101775.41;;;3.61;86.31
19795;BME280;10057;59.402;17.866;2024-02-15T12:03:25;101764.06;;;3.64;86.14
19795;BME280;10057;59.402;17.866;2024-02-15T12:06:30;101764.97;;;3.70;86.39
19795;BME280;10057;59.402;17.866;2024-02-15T12:09:19;101769.38;;;3.74;86.26
19795;BME280;10057;59.402;17.866;2024-02-15T12:12:05;101765.94;;;3.80;86.63
19795;BME280;10057;59.402;17.866;2024-02-15T12:15:00;101762.44;;;3.84;86.29
19795;BME280;10057;59.402;17.866;2024-02-15T12:17:46;101766.81;;;3.84;86.31
19795;BME280;10057;59.402;17.866;2024-02-15T12:20:32;101766.81;;;3.85;86.16
19795;BME280;10057;59.402;17.866;2024-02-15T12:22:59;101757.19;;;3.86;86.17
19795;BME280;10057;59.402;17.866;2024-02-15T12:25:27;101759.84;;;3.89;86.23
19795;BME280;10057;59.402;17.866;2024-02-15T12:27:59;101754.59;;;3.89;86.15
19795;BME280;10057;59.402;17.866;2024-02-15T12:30:32;101755.47;;;3.89;86.22
19795;BME280;10057;59.402;17.866;2024-02-15T12:33:12;101759.00;;;3.91;86.32
19795;BME280;10057;59.402;17.866;2024-02-15T12:35:41;101757.25;;;3.92;86.31
19795;BME280;10057;59.402;17.866;2024-02-15T12:38:12;101763.34;;;3.88;86.09
19795;BME280;10057;59.402;17.866;2024-02-15T12:40:42;101768.56;;;3.85;86.01
19795;BME280;10057;59.402;17.866;2024-02-15T12:43:13;101757.16;;;3.81;86.49
19795;BME280;10057;59.402;17.866;2024-02-15T12:45:40;101762.44;;;3.81;86.40
19795;BME280;10057;59.402;17.866;2024-02-15T12:48:09;101776.44;;;3.80;86.30
19795;BME280;10057;59.402;17.866;2024-02-15T12:50:37;101765.00;;;3.73;86.26
19795;BME280;10057;59.402;17.866;2024-02-15T12:53:04;101769.34;;;3.71;86.34
19795;BME280;10057;59.402;17.866;2024-02-15T12:55:34;101768.47;;;3.69;86.38
19795;BME280;10057;59.402;17.866;2024-02-15T12:58:03;101767.56;;;3.64;86.28
19795;BME280;10057;59.402;17.866;2024-02-15T13:00:31;101761.41;;;3.61;86.23
19795;BME280;10057;59.402;17.866;2024-02-15T13:03:04;101756.16;;;3.59;86.44
19795;BME280;10057;59.402;17.866;2024-02-15T13:05:31;101764.03;;;3.59;86.46
19795;BME280;10057;59.402;17.866;2024-02-15T13:07:59;101761.41;;;3.59;86.79
19795;BME280;10057;59.402;17.866;2024-02-15T13:10:28;101757.91;;;3.60;86.96
19795;BME280;10057;59.402;17.866;2024-02-15T13:12:55;101750.94;;;3.64;86.68
19795;BME280;10057;59.402;17.866;2024-02-15T13:15:22;101753.53;;;3.65;86.67
19795;BME280;10057;59.402;17.866;2024-02-15T13:17:55;101756.19;;;3.67;86.88